createdAt,value
2018-08-11T00:01:55.623Z,19.80
2018-08-11T00:04:25.469Z,19.86
2018-08-11T00:06:55.234Z,19.85
2018-08-11T00:09:24.697Z,19.85
2018-08-11T00:11:54.481Z,19.82
2018-08-11T00:14:24.184Z,19.81
2018-08-11T00:16:54.082Z,19.84
2018-08-11T00:19:23.620Z,19.75
2018-08-11T00:21:53.869Z,19.71
2018-08-11T00:24:23.538Z,19.79
2018-08-11T00:26:53.322Z,19.84
2018-08-11T00:29:22.840Z,19.74
2018-08-11T00:31:52.656Z,19.75
2018-08-11T00:34:22.137Z,19.75
2018-08-11T00:36:52.280Z,19.74
2018-08-11T00:39:22.095Z,19.79
2018-08-11T00:41:51.816Z,19.79
2018-08-11T00:44:21.304Z,19.75
2018-08-11T00:46:51.410Z,19.67
2018-08-11T00:49:21.651Z,19.74
2018-08-11T00:51:51.936Z,19.65
2018-08-11T00:54:21.403Z,19.66
2018-08-11T00:56:51.194Z,19.69
2018-08-11T00:59:21.112Z,19.67
2018-08-11T01:01:50.962Z,19.66
2018-08-11T01:04:20.540Z,19.64
2018-08-11T01:06:51.004Z,19.53
2018-08-11T01:09:20.638Z,19.57
2018-08-11T01:11:51.020Z,19.55
2018-08-11T01:14:20.813Z,19.61
2018-08-11T01:16:51.288Z,19.56
2018-08-11T01:19:21.493Z,19.50
2018-08-11T01:21:51.325Z,19.44
2018-08-11T01:24:20.871Z,19.37
2018-08-11T01:26:51.359Z,19.16
2018-08-11T01:29:20.923Z,19.11
2018-08-11T01:31:51.156Z,18.94
2018-08-11T01:34:20.767Z,18.88
2018-08-11T01:36:51.329Z,18.77
2018-08-11T01:39:21.284Z,18.50
2018-08-11T01:41:51.075Z,18.30
2018-08-11T01:44:21.238Z,18.40
2018-08-11T01:46:51.124Z,18.21
2018-08-11T01:49:20.676Z,17.99
2018-08-11T01:51:51.080Z,17.95
2018-08-11T01:54:20.674Z,17.73
2018-08-11T01:56:51.058Z,17.54
2018-08-11T01:59:20.967Z,17.58
2018-08-11T02:01:51.143Z,17.28
2018-08-11T02:04:20.913Z,17.21
2018-08-11T02:06:51.366Z,17.04
2018-08-11T02:09:21.180Z,17.02
2018-08-11T02:11:51.507Z,17.10
2018-08-11T02:14:20.994Z,16.93
2018-08-11T02:16:51.073Z,16.80
2018-08-11T02:19:20.793Z,16.76
2018-08-11T02:21:51.294Z,16.80
2018-08-11T02:24:21.022Z,16.96
2018-08-11T02:26:51.799Z,17.04
2018-08-11T02:29:21.282Z,17.21
2018-08-11T02:31:51.116Z,17.23
2018-08-11T02:34:20.879Z,17.05
2018-08-11T02:36:51.744Z,16.91
2018-08-11T02:39:21.961Z,16.97
2018-08-11T02:41:51.440Z,17.04
2018-08-11T02:44:21.114Z,17.10
2018-08-11T02:46:51.233Z,17.15
2018-08-11T02:49:21.135Z,17.11
2018-08-11T02:51:51.210Z,17.10
2018-08-11T02:54:21.106Z,17.14
2018-08-11T02:56:51.500Z,17.19
2018-08-11T02:59:24.886Z,17.18
2018-08-11T03:01:55.685Z,17.19
2018-08-11T03:04:25.720Z,17.14
2018-08-11T03:06:55.952Z,17.17
2018-08-11T03:09:25.591Z,17.09
2018-08-11T03:11:55.382Z,17.02
2018-08-11T03:14:25.185Z,16.99
2018-08-11T03:16:54.959Z,17.00
2018-08-11T03:19:24.434Z,16.97
2018-08-11T03:22:24.801Z,16.82
2018-08-11T03:24:54.782Z,16.79
2018-08-11T03:27:24.320Z,16.81
2018-08-11T03:29:54.463Z,16.73
2018-08-11T03:32:24.194Z,16.76
2018-08-11T03:34:53.652Z,16.85
2018-08-11T03:37:23.230Z,16.86
2018-08-11T03:39:53.167Z,16.91
2018-08-11T03:42:22.806Z,16.99
2018-08-11T03:44:52.561Z,17.02
2018-08-11T03:47:22.252Z,16.94
2018-08-11T03:49:52.014Z,16.93
2018-08-11T03:52:21.465Z,16.94
2018-08-11T03:54:51.575Z,16.98
2018-08-11T03:57:21.151Z,17.02
2018-08-11T03:59:51.590Z,17.03
2018-08-11T04:02:21.469Z,16.96
2018-08-11T04:04:51.516Z,16.97
2018-08-11T04:07:21.114Z,16.95
2018-08-11T04:09:51.551Z,16.87
2018-08-11T04:12:21.333Z,16.82
2018-08-11T04:14:51.676Z,16.82
2018-08-11T04:17:25.491Z,16.72
2018-08-11T04:19:55.349Z,16.71
2018-08-11T04:22:25.004Z,16.57
2018-08-11T04:24:55.048Z,16.55
2018-08-11T04:27:24.574Z,16.52
2018-08-11T04:29:54.605Z,16.48
2018-08-11T04:32:24.726Z,16.48
2018-08-11T04:34:54.850Z,16.50
2018-08-11T04:37:24.487Z,16.55
2018-08-11T04:39:54.306Z,16.49
2018-08-11T04:42:24.074Z,16.52
2018-08-11T04:44:53.680Z,16.57
2018-08-11T04:47:23.409Z,16.59
2018-08-11T04:49:53.296Z,16.60
2018-08-11T04:52:22.908Z,16.63
2018-08-11T04:54:52.837Z,16.53
2018-08-11T04:57:22.500Z,16.42
2018-08-11T04:59:52.130Z,16.45
2018-08-11T05:02:21.697Z,16.42
2018-08-11T05:04:51.792Z,16.40
2018-08-11T05:07:21.690Z,16.35
2018-08-11T05:09:51.808Z,16.36
2018-08-11T05:12:21.562Z,16.42
2018-08-11T05:14:52.224Z,16.48
2018-08-11T05:17:21.746Z,16.44
2018-08-11T05:19:52.032Z,16.31
2018-08-11T05:22:21.796Z,16.33
2018-08-11T05:24:52.033Z,16.45
2018-08-11T05:27:21.633Z,16.39
2018-08-11T05:29:54.083Z,16.27
2018-08-11T05:32:23.843Z,16.36
2018-08-11T05:34:54.340Z,16.43
2018-08-11T05:37:24.026Z,16.49
2018-08-11T05:39:53.812Z,16.56
2018-08-11T05:42:24.063Z,16.45
2018-08-11T05:44:53.834Z,16.51
2018-08-11T05:47:23.749Z,16.50
2018-08-11T05:49:56.441Z,16.45
2018-08-11T05:52:25.922Z,16.37
2018-08-11T05:54:55.466Z,16.44
2018-08-11T05:57:24.981Z,16.47
2018-08-11T05:59:54.639Z,16.48
2018-08-11T06:02:25.209Z,16.47
2018-08-11T06:04:55.171Z,16.48
2018-08-11T06:07:25.523Z,16.52
2018-08-11T06:09:55.551Z,16.50
2018-08-11T06:12:25.130Z,16.37
2018-08-11T06:14:54.850Z,16.44
2018-08-11T06:17:24.494Z,16.57
2018-08-11T06:19:54.566Z,16.51
2018-08-11T06:22:24.230Z,16.60
2018-08-11T06:24:54.020Z,16.64
2018-08-11T06:27:24.255Z,16.74
2018-08-11T06:32:47.638Z,17.02
2018-08-11T06:35:17.644Z,16.95
2018-08-11T06:37:47.233Z,17.06
2018-08-11T06:40:16.977Z,17.06
2018-08-11T06:42:46.449Z,16.97
2018-08-11T06:45:16.033Z,16.86
2018-08-11T06:47:45.946Z,16.84
2018-08-11T06:50:15.743Z,16.65
2018-08-11T06:52:45.350Z,16.89
2018-08-11T06:55:15.021Z,16.91
2018-08-11T06:57:45.543Z,16.69
2018-08-11T07:00:15.277Z,16.70
2018-08-11T07:02:45.308Z,16.66
2018-08-11T07:05:14.899Z,16.75
2018-08-11T07:07:44.755Z,16.99
2018-08-11T07:10:14.991Z,17.25
2018-08-11T07:12:44.576Z,17.46
2018-08-11T07:15:14.647Z,17.54
2018-08-11T07:17:44.568Z,17.42
2018-08-11T07:20:14.305Z,17.50
2018-08-11T07:22:44.422Z,17.31
2018-08-11T07:25:13.993Z,17.25
2018-08-11T07:27:43.511Z,17.30
2018-08-11T07:30:13.216Z,17.43
2018-08-11T07:32:42.952Z,17.49
2018-08-11T07:35:12.597Z,17.68
2018-08-11T07:37:42.632Z,18.01
2018-08-11T07:40:12.933Z,18.36
2018-08-11T07:42:43.284Z,18.32
2018-08-11T07:45:13.569Z,18.47
2018-08-11T07:47:43.652Z,18.42
2018-08-11T07:50:13.496Z,18.39
2018-08-11T07:52:43.498Z,18.43
2018-08-11T07:55:13.503Z,18.49
2018-08-11T07:57:43.149Z,18.80
2018-08-11T08:00:13.205Z,19.12
2018-08-11T08:02:42.965Z,19.28
2018-08-11T08:05:12.703Z,19.00
2018-08-11T08:07:42.302Z,19.15
2018-08-11T08:10:12.104Z,19.47
2018-08-11T08:12:42.160Z,19.86
2018-08-11T08:15:12.232Z,20.18
2018-08-11T08:17:42.057Z,20.21
2018-08-11T08:20:12.858Z,20.46
2018-08-11T08:22:42.513Z,20.58
2018-08-11T08:25:13.876Z,20.74
2018-08-11T08:27:50.993Z,20.75
2018-08-11T08:30:27.059Z,20.40
2018-08-11T08:32:56.606Z,20.08
2018-08-11T08:35:26.442Z,20.09
2018-08-11T08:37:56.435Z,20.45
2018-08-11T08:40:26.227Z,20.74
2018-08-11T08:42:57.305Z,20.63
2018-08-11T08:45:26.909Z,20.63
2018-08-11T08:47:57.183Z,20.93
2018-08-11T08:50:26.877Z,20.81
2018-08-11T08:52:56.930Z,21.06
2018-08-11T08:55:26.515Z,21.41
2018-08-11T08:57:56.763Z,21.61
2018-08-11T09:00:26.978Z,21.30
2018-08-11T09:02:56.553Z,21.04
2018-08-11T09:05:26.719Z,21.03
2018-08-11T09:07:56.252Z,21.06
2018-08-11T09:10:26.232Z,21.28
2018-08-11T09:12:56.310Z,21.44
2018-08-11T09:15:26.017Z,21.62
2018-08-11T09:17:55.852Z,21.37
2018-08-11T09:20:25.393Z,20.96
2018-08-11T09:22:54.977Z,20.67
2018-08-11T09:25:24.525Z,20.27
2018-08-11T09:27:54.595Z,20.18
2018-08-11T09:30:24.711Z,20.50
2018-08-11T09:32:54.879Z,20.65
2018-08-11T09:35:28.634Z,20.67
2018-08-11T09:37:58.860Z,20.38
2018-08-11T09:40:28.439Z,20.73
2018-08-11T09:42:58.929Z,21.08
2018-08-11T09:45:28.941Z,21.12
2018-08-11T09:48:01.078Z,20.83
2018-08-11T09:50:32.138Z,20.37
2018-08-11T09:53:03.414Z,20.08
2018-08-11T09:55:33.905Z,20.21
2018-08-11T09:58:04.193Z,20.40
2018-08-11T10:00:39.043Z,20.85
2018-08-11T10:03:08.698Z,21.14
2018-08-11T10:05:38.732Z,21.38
2018-08-11T10:08:11.386Z,21.50
2018-08-11T10:10:41.057Z,21.40
2018-08-11T10:13:10.801Z,21.59
2018-08-11T10:15:40.652Z,21.77
2018-08-11T10:18:10.428Z,21.75
2018-08-11T10:20:40.666Z,21.80
2018-08-11T10:23:10.448Z,21.87
2018-08-11T10:25:39.990Z,21.93
2018-08-11T10:28:09.702Z,22.00
2018-08-11T10:30:39.206Z,22.01
2018-08-11T10:33:08.704Z,22.23
2018-08-11T10:35:38.862Z,22.12
2018-08-11T10:38:08.913Z,22.38
2018-08-11T10:40:38.594Z,22.64
2018-08-11T10:43:08.802Z,22.56
2018-08-11T10:45:38.242Z,22.59
2018-08-11T10:48:08.200Z,22.62
2018-08-11T10:50:37.897Z,22.46
2018-08-11T10:53:07.718Z,22.57
2018-08-11T10:55:37.182Z,22.44
2018-08-11T10:58:07.262Z,22.07
2018-08-11T11:00:36.815Z,21.97
2018-08-11T11:03:07.650Z,22.17
2018-08-11T11:05:38.563Z,22.27
2018-08-11T11:08:08.736Z,22.12
2018-08-11T11:10:38.275Z,22.33
2018-08-11T11:13:09.178Z,22.10
2018-08-11T11:15:39.135Z,22.29
2018-08-11T11:18:09.359Z,22.03
2018-08-11T11:20:39.323Z,22.17
2018-08-11T11:23:09.067Z,22.39
2018-08-11T11:25:38.787Z,22.37
2018-08-11T11:28:08.532Z,22.44
2018-08-11T11:30:39.257Z,22.65
2018-08-11T11:33:09.038Z,22.49
2018-08-11T11:35:38.708Z,22.41
2018-08-11T11:38:08.839Z,22.35
2018-08-11T11:40:38.433Z,22.39
2018-08-11T11:43:08.101Z,22.36
2018-08-11T11:45:37.870Z,22.37
2018-08-11T11:48:07.920Z,22.52
2018-08-11T11:50:37.541Z,22.80
2018-08-11T11:53:07.668Z,23.01
2018-08-11T11:55:37.382Z,22.99
2018-08-11T11:58:07.480Z,23.07
2018-08-11T12:00:37.009Z,22.98
2018-08-11T12:03:07.010Z,23.05
2018-08-11T12:05:36.856Z,23.01
2018-08-11T12:08:06.725Z,23.12
2018-08-11T12:10:36.214Z,23.34
2018-08-11T12:13:07.140Z,23.45
2018-08-11T12:15:36.926Z,23.21
2018-08-11T12:18:06.989Z,23.13
2018-08-11T12:20:36.596Z,23.40
2018-08-11T12:23:06.398Z,23.23
2018-08-11T12:25:35.961Z,23.29
2018-08-11T12:28:05.803Z,23.22
2018-08-11T12:30:35.322Z,23.16
2018-08-11T12:33:04.980Z,22.99
2018-08-11T12:35:40.681Z,23.10
2018-08-11T12:38:10.518Z,22.93
2018-08-11T12:40:40.214Z,22.88
2018-08-11T12:43:10.024Z,22.69
2018-08-11T12:45:39.698Z,22.73
2018-08-11T12:48:09.473Z,22.69
2018-08-11T12:50:39.168Z,22.75
2018-08-11T12:53:09.363Z,22.77
2018-08-11T12:55:39.050Z,22.68
2018-08-11T12:58:09.278Z,22.60
2018-08-11T13:00:39.235Z,22.40
2018-08-11T13:03:09.050Z,22.36
2018-08-11T13:05:38.540Z,22.47
2018-08-11T13:08:08.137Z,22.57
2018-08-11T13:10:37.700Z,22.74
2018-08-11T13:13:07.434Z,22.82
2018-08-11T13:15:37.318Z,22.67
2018-08-11T13:18:07.379Z,22.42
2018-08-11T13:20:37.226Z,22.62
2018-08-11T13:23:07.002Z,22.67
2018-08-11T13:25:36.652Z,22.76
2018-08-11T13:28:07.157Z,22.95
2018-08-11T13:30:36.616Z,23.03
2018-08-11T13:33:06.818Z,22.99
2018-08-11T13:35:36.351Z,23.00
2018-08-11T13:38:06.743Z,22.99
2018-08-11T13:40:36.509Z,23.12
2018-08-11T13:43:06.416Z,23.25
2018-08-11T13:45:36.324Z,23.22
2018-08-11T13:48:06.741Z,22.97
2018-08-11T13:50:36.453Z,22.94
2018-08-11T13:53:06.444Z,22.81
2018-08-11T13:55:36.116Z,22.65
2018-08-11T13:58:06.082Z,22.56
2018-08-11T14:00:40.490Z,22.62
2018-08-11T14:03:10.510Z,22.79
2018-08-11T14:05:40.157Z,22.97
2018-08-11T14:08:09.981Z,22.94
2018-08-11T14:10:39.998Z,22.95
2018-08-11T14:13:09.726Z,22.88
2018-08-11T14:18:25.996Z,22.73
2018-08-11T14:20:55.883Z,22.71
2018-08-11T14:23:25.466Z,22.63
2018-08-11T14:25:56.041Z,22.67
2018-08-11T14:28:25.766Z,22.88
2018-08-11T14:30:55.218Z,23.03
2018-08-11T14:33:24.723Z,23.19
2018-08-11T14:36:07.132Z,23.20
2018-08-11T14:38:59.076Z,23.16
2018-08-11T14:41:30.848Z,22.96
2018-08-11T14:44:02.695Z,22.89
2018-08-11T14:46:33.367Z,22.91
2018-08-11T14:49:05.316Z,23.03
2018-08-11T14:51:37.836Z,23.11
2018-08-11T14:54:08.765Z,23.13
2018-08-11T14:56:39.258Z,23.26
2018-08-11T14:59:10.184Z,23.31
2018-08-11T15:01:46.495Z,23.32
2018-08-11T15:04:24.432Z,23.10
2018-08-11T15:06:56.954Z,23.10
2018-08-11T15:09:29.938Z,23.15
2018-08-11T15:12:03.195Z,23.17
2018-08-11T15:14:38.800Z,23.29
2018-08-11T15:17:10.650Z,23.28
2018-08-11T15:19:42.969Z,23.37
2018-08-11T15:22:14.315Z,23.31
2018-08-11T15:24:46.936Z,23.30
2018-08-11T15:27:20.452Z,23.29
2018-08-11T15:29:52.308Z,23.28
2018-08-11T15:32:22.488Z,23.17
2018-08-11T15:34:54.594Z,23.06
2018-08-11T15:37:25.320Z,23.11
2018-08-11T15:39:59.338Z,23.13
2018-08-11T15:42:34.254Z,23.27
2018-08-11T15:45:08.242Z,23.25
2018-08-11T15:47:39.821Z,23.22
2018-08-11T15:50:12.246Z,23.30
2018-08-11T15:52:45.283Z,23.22
2018-08-11T15:55:15.633Z,23.18
2018-08-11T15:57:46.442Z,23.30
2018-08-11T16:00:20.237Z,23.32
2018-08-11T16:02:54.118Z,23.33
2018-08-11T16:05:26.687Z,23.25
2018-08-11T16:07:57.651Z,23.15
2018-08-11T16:10:29.346Z,23.00
2018-08-11T16:13:04.592Z,22.99
2018-08-11T16:18:29.600Z,22.99
2018-08-11T16:21:05.504Z,23.02
2018-08-11T16:23:38.956Z,23.05
2018-08-11T16:26:20.452Z,22.97
2018-08-11T16:28:56.202Z,23.00
2018-08-11T16:31:33.780Z,23.08
2018-08-11T16:34:12.074Z,23.11
2018-08-11T16:36:54.314Z,23.18
2018-08-11T16:39:27.846Z,23.16
2018-08-11T16:42:01.094Z,23.22
2018-08-11T16:44:30.620Z,23.17
2018-08-11T16:47:02.052Z,22.96
2018-08-11T16:49:34.608Z,22.77
2018-08-11T16:52:07.740Z,22.76
2018-08-11T16:54:40.496Z,22.65
2018-08-11T16:57:13.490Z,22.57
2018-08-11T16:59:46.845Z,22.55
2018-08-11T17:02:18.153Z,22.63
2018-08-11T17:04:48.881Z,22.63
2018-08-11T17:07:22.981Z,22.74
2018-08-11T17:09:56.737Z,22.82
2018-08-11T17:15:19.091Z,22.86
2018-08-11T17:17:54.889Z,22.83
2018-08-11T17:20:30.672Z,22.89
2018-08-11T17:23:06.675Z,22.88
2018-08-11T17:25:40.251Z,22.93
2018-08-11T17:31:02.536Z,22.92
2018-08-11T17:33:39.549Z,22.79
2018-08-11T17:36:13.035Z,22.65
2018-08-11T17:38:50.884Z,22.56
2018-08-11T17:41:21.204Z,22.55
2018-08-11T17:43:51.469Z,22.68
2018-08-11T17:46:22.056Z,22.62
2018-08-11T17:48:55.037Z,22.59
2018-08-11T17:51:27.628Z,22.43
2018-08-11T17:53:57.808Z,22.46
2018-08-11T17:56:30.088Z,22.35
2018-08-11T17:59:03.636Z,22.36
2018-08-11T18:01:35.399Z,22.35
2018-08-11T18:04:11.077Z,22.29
2018-08-11T18:09:19.573Z,22.30
2018-08-11T18:11:51.186Z,22.11
2018-08-11T18:14:22.692Z,22.19
2018-08-11T18:16:52.975Z,22.07
2018-08-11T18:19:23.216Z,22.01
2018-08-11T18:21:55.388Z,22.10
2018-08-11T18:24:26.872Z,22.18
2018-08-11T18:26:57.721Z,22.18
2018-08-11T18:29:28.920Z,22.13
2018-08-11T18:34:51.635Z,22.02
2018-08-11T18:37:25.938Z,22.02
2018-08-11T18:39:59.212Z,22.04
2018-08-11T18:42:37.506Z,21.99
2018-08-11T18:45:16.725Z,21.95
2018-08-11T18:47:52.406Z,22.00
2018-08-11T18:50:25.740Z,22.00
2018-08-11T18:52:59.281Z,22.04
2018-08-11T18:55:36.084Z,22.02
2018-08-11T18:58:07.811Z,21.97
2018-08-11T19:00:38.888Z,21.87
2018-08-11T19:03:17.192Z,21.79
2018-08-11T19:05:55.283Z,21.74
2018-08-11T19:08:30.168Z,21.72
2018-08-11T19:11:06.391Z,21.73
2018-08-11T19:13:44.418Z,21.73
2018-08-11T19:16:20.288Z,21.59
2018-08-11T19:18:52.856Z,21.57
2018-08-11T19:21:29.192Z,21.45
2018-08-11T19:24:06.034Z,21.40
2018-08-11T19:26:38.767Z,21.42
2018-08-11T19:29:08.719Z,21.48
2018-08-11T19:31:38.617Z,21.49
2018-08-11T19:34:09.684Z,21.50
2018-08-11T19:36:40.901Z,21.52
2018-08-11T19:39:12.624Z,21.52
2018-08-11T19:41:43.071Z,21.48
2018-08-11T19:44:13.364Z,21.43
2018-08-11T19:46:43.808Z,21.42
2018-08-11T19:49:15.412Z,21.37
2018-08-11T19:51:45.235Z,21.36
2018-08-11T19:54:15.294Z,21.29
2018-08-11T19:56:45.152Z,21.24
2018-08-11T19:59:15.442Z,21.20
2018-08-11T20:01:46.141Z,21.15
2018-08-11T20:04:18.753Z,21.06
2018-08-11T20:06:49.768Z,20.91
2018-08-11T20:09:19.621Z,20.79
2018-08-11T20:11:49.669Z,20.72
2018-08-11T20:14:20.073Z,20.66
2018-08-11T20:16:50.928Z,20.65
2018-08-11T20:19:21.744Z,20.60
2018-08-11T20:21:55.804Z,20.56
2018-08-11T20:24:26.078Z,20.54
2018-08-11T20:26:58.395Z,20.44
2018-08-11T20:29:28.675Z,20.36
2018-08-11T20:31:58.736Z,20.27
2018-08-11T20:34:28.578Z,20.19
2018-08-11T20:36:58.669Z,20.11
2018-08-11T20:39:28.611Z,20.12
2018-08-11T20:41:58.186Z,20.04
2018-08-11T20:44:28.971Z,20.05
2018-08-11T20:46:59.231Z,20.03
2018-08-11T20:49:29.114Z,19.92
2018-08-11T20:52:00.563Z,19.82
2018-08-11T20:54:32.084Z,19.77
2018-08-11T20:57:01.726Z,19.77
2018-08-11T20:59:33.762Z,19.67
2018-08-11T21:02:03.887Z,19.53
2018-08-11T21:04:34.323Z,19.49
2018-08-11T21:07:05.585Z,19.49
2018-08-11T21:09:35.935Z,19.48
2018-08-11T21:12:06.266Z,19.45
2018-08-11T21:14:36.639Z,19.43
2018-08-11T21:17:07.690Z,19.32
2018-08-11T21:19:38.857Z,19.26
2018-08-11T21:22:10.237Z,19.22
2018-08-11T21:24:40.404Z,19.22
2018-08-11T21:27:11.233Z,19.19
2018-08-11T21:29:42.086Z,19.21
2018-08-11T21:32:12.250Z,19.18
2018-08-11T21:34:42.331Z,19.21
2018-08-11T21:37:13.237Z,19.24
2018-08-11T21:39:43.462Z,19.32
2018-08-11T21:42:14.002Z,19.34
2018-08-11T21:44:44.232Z,19.31
2018-08-11T21:47:14.250Z,19.28
2018-08-11T21:49:45.904Z,19.24
2018-08-11T21:52:17.951Z,19.21
2018-08-11T21:54:48.338Z,19.18
2018-08-11T21:57:21.999Z,19.11
2018-08-11T21:59:52.256Z,19.09
2018-08-11T22:02:22.107Z,19.04
2018-08-11T22:04:55.863Z,19.05
2018-08-11T22:07:25.667Z,19.05
2018-08-11T22:09:55.887Z,19.03
2018-08-11T22:12:34.364Z,19.03
2018-08-11T22:15:04.196Z,19.02
2018-08-11T22:17:34.020Z,18.98
2018-08-11T22:20:05.077Z,18.93
2018-08-11T22:22:35.732Z,18.88
2018-08-11T22:25:08.317Z,18.85
2018-08-11T22:27:38.027Z,18.81
2018-08-11T22:30:08.526Z,18.77
2018-08-11T22:32:38.554Z,18.71
2018-08-11T22:35:11.262Z,18.63
2018-08-11T22:37:42.015Z,18.55
2018-08-11T22:40:12.034Z,18.44
2018-08-11T22:42:42.397Z,18.40
2018-08-11T22:45:13.049Z,18.41
2018-08-11T22:47:42.667Z,18.46
2018-08-11T22:50:14.758Z,18.38
2018-08-11T22:52:44.500Z,18.26
2018-08-11T22:55:14.581Z,18.30
2018-08-11T22:57:44.530Z,18.32
2018-08-11T23:00:20.532Z,18.30
2018-08-11T23:02:50.561Z,18.24
2018-08-11T23:05:21.941Z,18.27
2018-08-11T23:07:52.189Z,18.24
2018-08-11T23:10:21.810Z,18.25
2018-08-11T23:12:51.363Z,18.18
2018-08-11T23:15:20.958Z,18.19
2018-08-11T23:17:51.492Z,18.21
2018-08-11T23:20:21.090Z,18.19
2018-08-11T23:22:50.679Z,18.13
2018-08-11T23:25:20.656Z,18.11
2018-08-11T23:27:51.043Z,18.13
2018-08-11T23:30:20.610Z,18.11
2018-08-11T23:32:50.211Z,18.15
2018-08-11T23:35:19.837Z,18.15
2018-08-11T23:37:49.836Z,18.13
2018-08-11T23:40:19.616Z,18.11
2018-08-11T23:42:49.795Z,18.09
2018-08-11T23:45:19.670Z,18.07
2018-08-11T23:47:49.542Z,18.10
2018-08-11T23:50:19.313Z,18.02
2018-08-11T23:52:49.312Z,18.01
2018-08-11T23:55:18.899Z,17.95
2018-08-11T23:57:48.855Z,17.89
